MWCB

Gerrard Smith International Airport

Cayman Brac, Cayman Islands
TAF MWCB 171100Z 1712/1812 11006KT 9999 VCSH SCT018 TEMPO 1806/1809 8000 SHRA SCT016 BECMG 1803/1705 05005 9999 SCT018
Issued Valid From Valid To
Dec-17 @ 11:00 UTC
(2 hours ago)
Dec-17 @ 12:00 UTC
(37 minutes ago)
Dec-18 @ 12:00 UTC
(in 23 hours)
Dec-17 @ 12:00 to Dec-18 @ 03:00
TAF MWCB 171100Z 1712/1812 11006KT 9999 VCSH SCT018
Wind Visibility Clouds
110° at 6 knots 10,000+ meters
  • Scattered at 1,800' AGL
Becoming Dec-18 @ 03:00 to Dec-18 @ 12:00
BECMG 1803/1705 05005 9999 SCT018
Wind Visibility Clouds
50° at 5 knots 10,000+ meters
  • Scattered at 1,800' AGL
Temporary Dec-18 @ 06:00 to Dec-18 @ 09:00
TEMPO 1806/1809 8000 SHRA SCT016
Visibility Clouds Conditions
7,998 meters
  • Scattered at 1,600' AGL
  • Rain
TAF MWCB 171100Z 1712/1812 11006KT 9999 VCSH SCT018 TEMPO 1806/1809 8000 SHRA SCT016 BECMG 1803/1705 05005 9999 SCT018
Issued Dec-17 @ 11:00 UTC
(2 hours ago)
Valid From Dec-17 @ 12:00 UTC
(37 minutes ago)
Valid To Dec-18 @ 12:00 UTC
(in 23 hours)
Dec-17 @ 12:00 - Dec-18 @ 03:00
Wind Visibility
110° at 6 knots 10,000+ meters
Clouds
  • Scattered at 1,800' AGL
Becoming Dec-18 @ 03:00 - Dec-18 @ 12:00
Wind Visibility
50° at 5 knots 10,000+ meters
Clouds
  • Scattered at 1,800' AGL
Temporary Dec-18 @ 06:00 - Dec-18 @ 09:00
Clouds
  • Scattered at 1,600' AGL
Conditions
  • Rain